CST,Max TemperatureF,Mean TemperatureF,Min TemperatureF,Max Dew PointF,MeanDew PointF,Min DewpointF,Max Humidity, Mean Humidity, Min Humidity, Max Sea Level PressureIn, Mean Sea Level PressureIn, Min Sea Level PressureIn, Max VisibilityMiles, Mean VisibilityMiles, Min VisibilityMiles, Max Wind SpeedMPH, Mean Wind SpeedMPH, Max Gust SpeedMPH,PrecipitationIn, CloudCover, Events, WindDirDegrees
2013-1-1,73,64,55,67,59,51,93,86,79,30.15,30.03,29.91,10,10,7,20,9,29,0.04,7,Rain,322
2013-1-2,55,49,43,52,46,42,100,95,89,30.27,30.20,30.12,10,8,5,18,12,23,0.57,8,Rain,332
2013-1-3,49,46,43,45,43,39,100,86,71,30.34,30.29,30.24,10,6,2,18,13,25,0.03,8,Rain,331
2013-1-4,48,47,45,45,43,37,100,86,71,30.39,30.31,30.27,10,6,2,21,15,31,0.03,8,Rain,323
2013-1-5,51,48,45,47,44,39,100,88,76,30.34,30.26,30.22,10,9,4,21,13,30,T,8,Rain,331
2013-1-6,66,58,49,47,44,37,86,62,37,30.35,30.28,30.24,10,10,10,20,10,26,T,6,,349
2013-1-7,69,59,48,61,53,45,93,73,53,30.29,30.13,29.99,10,10,10,13,5,16,0.01,7,,17
2013-1-8,72,68,63,70,66,61,100,90,79,29.96,29.88,29.71,10,9,4,31,9,40,0.32,7,Rain-Thunderstorm,169
2013-1-9,70,64,57,69,61,54,100,97,93,30.12,29.94,29.78,10,8,3,20,6,23,0.45,8,Rain-Thunderstorm,312
2013-1-10,72,62,52,59,55,52,100,77,53,30.11,30.06,30.03,10,9,0,13,4,15,T,2,Fog,28
2013-1-11,81,67,53,72,62,54,100,79,58,30.07,29.94,29.82,10,6,0,23,11,28,0.00,3,Fog,148
2013-1-12,82,77,72,73,71,71,100,87,74,29.83,29.76,29.68,10,10,9,37,22,46,0.00,6,,167
2013-1-13,74,63,52,71,52,39,93,70,47,30.07,29.93,29.70,10,9,6,25,12,37,T,8,Rain,321
2013-1-14,56,52,47,47,45,41,100,78,55,30.15,30.08,30.04,10,9,4,18,11,25,0.00,8,,344
2013-1-15,50,47,44,48,44,37,100,92,83,30.22,30.08,30.00,10,8,2,20,11,28,0.03,8,Rain,339
2013-1-16,60,49,37,37,28,19,79,51,23,30.39,30.31,30.24,10,10,7,23,11,33,0.00,4,,331
2013-1-17,66,51,36,44,36,28,79,54,29,30.47,30.41,30.35,10,10,7,14,7,21,0.00,0,,335
2013-1-18,71,57,42,50,46,42,92,66,40,30.48,30.40,30.32,10,10,10,12,5,16,0.00,0,,19
2013-1-19,76,61,45,53,50,45,93,69,44,30.30,30.23,30.15,10,10,10,15,5,18,0.00,1,,93
2013-1-20,76,64,52,58,55,51,100,77,53,30.24,30.17,30.10,10,10,10,14,5,18,0.00,1,,94
2013-1-21,75,66,57,60,57,55,93,73,53,30.21,30.15,30.09,10,10,10,16,6,18,0.00,0,,73
2013-1-22,77,65,53,59,56,52,100,73,46,30.27,30.21,30.16,10,9,2,15,6,22,0.00,0,,70
2013-1-23,80,68,56,65,61,56,100,79,58,30.32,30.26,30.23,10,8,1,18,8,22,0.00,3,,112
2013-1-24,83,71,58,65,61,57,100,76,51,30.28,30.22,30.16,10,9,1,21,10,25,0.00,0,,152
2013-1-25,82,70,58,67,63,58,100,76,51,30.18,30.12,30.05,10,10,4,26,12,35,0.00,2,,160
2013-1-26,81,72,62,66,62,55,100,73,45,30.14,30.09,30.04,10,10,10,23,12,29,0.00,1,,146
2013-1-27,83,75,67,70,67,66,100,81,62,30.09,30.03,29.96,10,10,10,32,16,39,0.00,6,,149
2013-1-28,83,77,71,72,69,67,100,79,58,30.06,29.98,29.92,10,10,9,32,21,40,0.00,7,,153
2013-1-29,85,78,71,72,70,68,93,76,59,29.92,29.78,29.65,10,10,8,40,25,49,0.00,3,,170
2013-1-30,74,60,45,70,31,14,87,49,11,30.27,30.02,29.68,10,10,9,29,14,40,0.00,3,,342
2013-1-31,73,58,43,48,39,30,77,52,27,30.33,30.27,30.23,10,10,10,15,6,18,0.00,0,,96